sensor_id;sensor_type;location;lat;lon;timestamp;temperature;humidity
3067;DHT22;1544;48.834;9.194;2023-04-24T00:00:16;12.40;49.80
3067;DHT22;1544;48.834;9.194;2023-04-24T00:02:52;12.40;49.60
3067;DHT22;1544;48.834;9.194;2023-04-24T00:05:32;12.40;48.00
3067;DHT22;1544;48.834;9.194;2023-04-24T00:08:07;12.50;47.90
3067;DHT22;1544;48.834;9.194;2023-04-24T00:10:42;12.50;47.20
3067;DHT22;1544;48.834;9.194;2023-04-24T00:13:17;12.60;46.90
3067;DHT22;1544;48.834;9.194;2023-04-24T00:15:52;12.60;47.00
3067;DHT22;1544;48.834;9.194;2023-04-24T00:18:27;12.60;47.00
3067;DHT22;1544;48.834;9.194;2023-04-24T00:21:02;12.60;46.40
3067;DHT22;1544;48.834;9.194;2023-04-24T00:23:37;12.70;45.20
3067;DHT22;1544;48.834;9.194;2023-04-24T00:26:14;12.80;44.30
3067;DHT22;1544;48.834;9.194;2023-04-24T00:28:49;12.80;44.20
3067;DHT22;1544;48.834;9.194;2023-04-24T00:31:24;12.80;43.70
3067;DHT22;1544;48.834;9.194;2023-04-24T00:33:59;12.90;43.60
3067;DHT22;1544;48.834;9.194;2023-04-24T00:36:34;12.90;43.60
3067;DHT22;1544;48.834;9.194;2023-04-24T00:39:09;12.90;43.90
3067;DHT22;1544;48.834;9.194;2023-04-24T00:41:45;12.90;43.20
3067;DHT22;1544;48.834;9.194;2023-04-24T00:44:20;12.90;43.30
3067;DHT22;1544;48.834;9.194;2023-04-24T00:46:56;12.90;43.60
3067;DHT22;1544;48.834;9.194;2023-04-24T00:49:31;12.90;43.50
3067;DHT22;1544;48.834;9.194;2023-04-24T00:52:06;12.80;43.30
3067;DHT22;1544;48.834;9.194;2023-04-24T00:54:44;12.90;43.20
3067;DHT22;1544;48.834;9.194;2023-04-24T00:57:22;12.90;43.40
3067;DHT22;1544;48.834;9.194;2023-04-24T00:59:58;12.90;43.80
3067;DHT22;1544;48.834;9.194;2023-04-24T01:02:33;12.90;44.00
3067;DHT22;1544;48.834;9.194;2023-04-24T01:05:09;12.90;43.80
3067;DHT22;1544;48.834;9.194;2023-04-24T01:07:46;13.00;42.90
3067;DHT22;1544;48.834;9.194;2023-04-24T01:10:24;13.00;42.70
3067;DHT22;1544;48.834;9.194;2023-04-24T01:13:00;13.00;42.70
3067;DHT22;1544;48.834;9.194;2023-04-24T01:15:35;13.00;42.80
3067;DHT22;1544;48.834;9.194;2023-04-24T01:18:10;13.00;43.00
3067;DHT22;1544;48.834;9.194;2023-04-24T01:20:45;13.00;42.40
3067;DHT22;1544;48.834;9.194;2023-04-24T01:23:21;13.10;42.10
3067;DHT22;1544;48.834;9.194;2023-04-24T01:25:58;13.10;42.10
3067;DHT22;1544;48.834;9.194;2023-04-24T01:28:33;13.00;42.70
3067;DHT22;1544;48.834;9.194;2023-04-24T01:31:08;13.00;42.80
3067;DHT22;1544;48.834;9.194;2023-04-24T01:33:43;13.00;42.60
3067;DHT22;1544;48.834;9.194;2023-04-24T01:36:18;13.00;42.60
3067;DHT22;1544;48.834;9.194;2023-04-24T01:38:53;12.90;42.90
3067;DHT22;1544;48.834;9.194;2023-04-24T01:41:29;12.90;42.80
3067;DHT22;1544;48.834;9.194;2023-04-24T01:44:04;12.90;43.40
3067;DHT22;1544;48.834;9.194;2023-04-24T01:46:39;12.80;43.40
3067;DHT22;1544;48.834;9.194;2023-04-24T01:49:15;12.80;43.40
3067;DHT22;1544;48.834;9.194;2023-04-24T01:51:50;12.80;43.70
3067;DHT22;1544;48.834;9.194;2023-04-24T01:54:24;12.80;43.40
3067;DHT22;1544;48.834;9.194;2023-04-24T01:57:00;12.70;43.50
3067;DHT22;1544;48.834;9.194;2023-04-24T01:59:36;12.70;43.20
3067;DHT22;1544;48.834;9.194;2023-04-24T02:02:11;12.70;43.50
3067;DHT22;1544;48.834;9.194;2023-04-24T02:04:46;12.70;43.40
3067;DHT22;1544;48.834;9.194;2023-04-24T02:07:21;12.60;43.70
3067;DHT22;1544;48.834;9.194;2023-04-24T02:09:57;12.60;44.10
3067;DHT22;1544;48.834;9.194;2023-04-24T02:12:32;12.60;44.10
3067;DHT22;1544;48.834;9.194;2023-04-24T02:15:07;12.60;44.50
3067;DHT22;1544;48.834;9.194;2023-04-24T02:17:44;12.50;44.70
3067;DHT22;1544;48.834;9.194;2023-04-24T02:20:19;12.50;45.10
3067;DHT22;1544;48.834;9.194;2023-04-24T02:22:54;12.50;45.30
3067;DHT22;1544;48.834;9.194;2023-04-24T02:25:29;12.40;45.30
3067;DHT22;1544;48.834;9.194;2023-04-24T02:28:04;12.40;45.30
3067;DHT22;1544;48.834;9.194;2023-04-24T02:30:41;12.40;45.00
3067;DHT22;1544;48.834;9.194;2023-04-24T02:33:16;12.50;45.20
3067;DHT22;1544;48.834;9.194;2023-04-24T02:35:51;12.60;44.80
3067;DHT22;1544;48.834;9.194;2023-04-24T02:38:26;12.60;45.20
3067;DHT22;1544;48.834;9.194;2023-04-24T02:41:01;12.70;44.60
3067;DHT22;1544;48.834;9.194;2023-04-24T02:43:36;12.70;44.00
3067;DHT22;1544;48.834;9.194;2023-04-24T02:46:11;12.80;43.90
3067;DHT22;1544;48.834;9.194;2023-04-24T02:48:46;12.80;45.40
3067;DHT22;1544;48.834;9.194;2023-04-24T02:51:21;12.80;46.30
3067;DHT22;1544;48.834;9.194;2023-04-24T02:53:56;12.70;48.10
3067;DHT22;1544;48.834;9.194;2023-04-24T02:56:31;12.70;48.90
3067;DHT22;1544;48.834;9.194;2023-04-24T02:59:07;12.60;50.30
3067;DHT22;1544;48.834;9.194;2023-04-24T03:01:42;12.60;52.30
3067;DHT22;1544;48.834;9.194;2023-04-24T03:04:17;12.50;53.40
3067;DHT22;1544;48.834;9.194;2023-04-24T03:06:55;12.50;53.90
3067;DHT22;1544;48.834;9.194;2023-04-24T03:09:30;12.40;55.00
3067;DHT22;1544;48.834;9.194;2023-04-24T03:12:06;12.40;56.30
3067;DHT22;1544;48.834;9.194;2023-04-24T03:14:41;12.40;56.50
3067;DHT22;1544;48.834;9.194;2023-04-24T03:17:16;12.40;56.20
3067;DHT22;1544;48.834;9.194;2023-04-24T03:19:51;12.40;56.00
3067;DHT22;1544;48.834;9.194;2023-04-24T03:22:26;12.40;56.10
3067;DHT22;1544;48.834;9.194;2023-04-24T03:25:01;12.30;56.30
3067;DHT22;1544;48.834;9.194;2023-04-24T03:27:38;12.30;56.50
3067;DHT22;1544;48.834;9.194;2023-04-24T03:30:31;12.20;56.70
3067;DHT22;1544;48.834;9.194;2023-04-24T03:33:07;12.20;56.80
3067;DHT22;1544;48.834;9.194;2023-04-24T03:35:46;12.10;56.90
3067;DHT22;1544;48.834;9.194;2023-04-24T03:38:20;12.10;57.40
3067;DHT22;1544;48.834;9.194;2023-04-24T03:41:06;12.00;57.10
3067;DHT22;1544;48.834;9.194;2023-04-24T03:43:46;12.00;57.30
3067;DHT22;1544;48.834;9.194;2023-04-24T03:46:22;11.90;57.40
3067;DHT22;1544;48.834;9.194;2023-04-24T03:49:01;11.90;57.90
3067;DHT22;1544;48.834;9.194;2023-04-24T03:51:40;11.90;57.80
3067;DHT22;1544;48.834;9.194;2023-04-24T03:54:23;11.80;58.60
3067;DHT22;1544;48.834;9.194;2023-04-24T03:57:00;11.80;58.80
3067;DHT22;1544;48.834;9.194;2023-04-24T03:59:38;11.70;59.00
3067;DHT22;1544;48.834;9.194;2023-04-24T04:02:22;11.70;59.40
3067;DHT22;1544;48.834;9.194;2023-04-24T04:04:57;11.70;59.10
3067;DHT22;1544;48.834;9.194;2023-04-24T04:07:34;11.70;59.60
3067;DHT22;1544;48.834;9.194;2023-04-24T04:10:09;11.70;59.40
3067;DHT22;1544;48.834;9.194;2023-04-24T04:12:44;11.70;59.40
3067;DHT22;1544;48.834;9.194;2023-04-24T04:15:19;11.70;59.70
3067;DHT22;1544;48.834;9.194;2023-04-24T04:17:56;11.80;59.60
3067;DHT22;1544;48.834;9.194;2023-04-24T04:20:31;11.90;59.30
3067;DHT22;1544;48.834;9.194;2023-04-24T04:23:07;11.90;58.70
3067;DHT22;1544;48.834;9.194;2023-04-24T04:25:52;12.00;58.30
3067;DHT22;1544;48.834;9.194;2023-04-24T04:28:31;11.90;59.40
3067;DHT22;1544;48.834;9.194;2023-04-24T04:31:07;11.90;61.50
3067;DHT22;1544;48.834;9.194;2023-04-24T04:33:42;11.90;63.50
3067;DHT22;1544;48.834;9.194;2023-04-24T04:36:19;11.90;60.00
3067;DHT22;1544;48.834;9.194;2023-04-24T04:38:59;11.70;58.40
3067;DHT22;1544;48.834;9.194;2023-04-24T04:41:54;11.70;57.60
3067;DHT22;1544;48.834;9.194;2023-04-24T04:44:33;11.60;56.90
3067;DHT22;1544;48.834;9.194;2023-04-24T04:47:12;11.60;55.70
3067;DHT22;1544;48.834;9.194;2023-04-24T04:49:49;11.60;55.00
3067;DHT22;1544;48.834;9.194;2023-04-24T04:52:29;11.60;54.50
3067;DHT22;1544;48.834;9.194;2023-04-24T04:55:14;11.60;53.90
3067;DHT22;1544;48.834;9.194;2023-04-24T04:58:28;11.70;50.80
3067;DHT22;1544;48.834;9.194;2023-04-24T05:01:06;11.70;49.70
3067;DHT22;1544;48.834;9.194;2023-04-24T05:03:47;11.70;47.20
3067;DHT22;1544;48.834;9.194;2023-04-24T05:06:24;11.60;48.40
3067;DHT22;1544;48.834;9.194;2023-04-24T05:09:01;11.60;46.90
3067;DHT22;1544;48.834;9.194;2023-04-24T05:11:45;11.60;47.40
3067;DHT22;1544;48.834;9.194;2023-04-24T05:14:20;11.60;47.70
3067;DHT22;1544;48.834;9.194;2023-04-24T05:16:57;11.60;47.80
3067;DHT22;1544;48.834;9.194;2023-04-24T05:19:33;11.60;48.60
3067;DHT22;1544;48.834;9.194;2023-04-24T05:22:10;11.50;48.30
3067;DHT22;1544;48.834;9.194;2023-04-24T05:24:54;11.50;47.90
3067;DHT22;1544;48.834;9.194;2023-04-24T05:27:35;11.50;47.20
3067;DHT22;1544;48.834;9.194;2023-04-24T05:30:16;11.50;47.80
3067;DHT22;1544;48.834;9.194;2023-04-24T05:32:53;11.50;47.10
3067;DHT22;1544;48.834;9.194;2023-04-24T05:35:28;11.60;47.30
3067;DHT22;1544;48.834;9.194;2023-04-24T05:38:12;11.60;47.60
3067;DHT22;1544;48.834;9.194;2023-04-24T05:40:54;11.60;47.40
3067;DHT22;1544;48.834;9.194;2023-04-24T05:43:30;11.60;47.70
3067;DHT22;1544;48.834;9.194;2023-04-24T05:46:07;11.60;47.70
3067;DHT22;1544;48.834;9.194;2023-04-24T05:48:43;11.60;46.60
3067;DHT22;1544;48.834;9.194;2023-04-24T05:51:20;11.60;45.90
3067;DHT22;1544;48.834;9.194;2023-04-24T05:53:56;11.50;46.20
3067;DHT22;1544;48.834;9.194;2023-04-24T05:56:33;11.60;45.50
3067;DHT22;1544;48.834;9.194;2023-04-24T05:59:11;11.60;46.70
3067;DHT22;1544;48.834;9.194;2023-04-24T06:01:47;11.50;47.90
3067;DHT22;1544;48.834;9.194;2023-04-24T06:04:28;11.60;48.20
3067;DHT22;1544;48.834;9.194;2023-04-24T06:07:06;11.60;48.00
3067;DHT22;1544;48.834;9.194;2023-04-24T06:09:42;11.60;47.30
3067;DHT22;1544;48.834;9.194;2023-04-24T06:12:19;11.60;45.70
3067;DHT22;1544;48.834;9.194;2023-04-24T06:15:03;11.60;46.00
3067;DHT22;1544;48.834;9.194;2023-04-24T06:17:58;11.60;45.40
3067;DHT22;1544;48.834;9.194;2023-04-24T06:20:35;11.60;46.20
3067;DHT22;1544;48.834;9.194;2023-04-24T06:23:10;11.60;46.50
3067;DHT22;1544;48.834;9.194;2023-04-24T06:25:47;11.60;47.10
3067;DHT22;1544;48.834;9.194;2023-04-24T06:28:22;11.70;47.00
3067;DHT22;1544;48.834;9.194;2023-04-24T06:30:59;11.80;47.10
3067;DHT22;1544;48.834;9.194;2023-04-24T06:33:34;12.00;46.80
3067;DHT22;1544;48.834;9.194;2023-04-24T06:36:09;12.10;46.20
3067;DHT22;1544;48.834;9.194;2023-04-24T06:38:45;12.40;44.10
3067;DHT22;1544;48.834;9.194;2023-04-24T06:41:21;12.50;42.90
3067;DHT22;1544;48.834;9.194;2023-04-24T06:43:59;12.60;42.10
3067;DHT22;1544;48.834;9.194;2023-04-24T06:46:34;12.80;41.20
3067;DHT22;1544;48.834;9.194;2023-04-24T06:49:11;13.00;39.50
3067;DHT22;1544;48.834;9.194;2023-04-24T06:51:48;13.10;39.30
3067;DHT22;1544;48.834;9.194;2023-04-24T06:54:23;13.00;38.30
3067;DHT22;1544;48.834;9.194;2023-04-24T06:56:59;13.00;38.20
3067;DHT22;1544;48.834;9.194;2023-04-24T06:59:36;13.00;37.60
3067;DHT22;1544;48.834;9.194;2023-04-24T07:02:11;13.20;37.10
3067;DHT22;1544;48.834;9.194;2023-04-24T07:04:48;13.30;37.30
3067;DHT22;1544;48.834;9.194;2023-04-24T07:07:23;13.40;36.50
3067;DHT22;1544;48.834;9.194;2023-04-24T07:10:00;13.40;36.10
3067;DHT22;1544;48.834;9.194;2023-04-24T07:12:35;13.40;36.60
3067;DHT22;1544;48.834;9.194;2023-04-24T07:15:13;13.50;36.20
3067;DHT22;1544;48.834;9.194;2023-04-24T07:17:49;13.70;35.40
3067;DHT22;1544;48.834;9.194;2023-04-24T07:20:25;13.70;34.90
3067;DHT22;1544;48.834;9.194;2023-04-24T07:23:02;13.80;35.80
3067;DHT22;1544;48.834;9.194;2023-04-24T07:25:39;13.70;35.60
3067;DHT22;1544;48.834;9.194;2023-04-24T07:28:14;13.80;35.20
3067;DHT22;1544;48.834;9.194;2023-04-24T07:30:50;13.80;34.80
3067;DHT22;1544;48.834;9.194;2023-04-24T07:33:31;13.80;33.40
3067;DHT22;1544;48.834;9.194;2023-04-24T07:36:06;13.80;33.90
3067;DHT22;1544;48.834;9.194;2023-04-24T07:38:43;13.90;33.20
3067;DHT22;1544;48.834;9.194;2023-04-24T07:41:20;14.00;33.00
3067;DHT22;1544;48.834;9.194;2023-04-24T07:43:58;14.20;32.60
3067;DHT22;1544;48.834;9.194;2023-04-24T07:46:34;14.20;32.80
3067;DHT22;1544;48.834;9.194;2023-04-24T07:49:10;14.30;32.30
3067;DHT22;1544;48.834;9.194;2023-04-24T07:51:49;14.40;32.90
3067;DHT22;1544;48.834;9.194;2023-04-24T07:54:25;14.50;32.10
3067;DHT22;1544;48.834;9.194;2023-04-24T07:57:01;14.40;31.40
3067;DHT22;1544;48.834;9.194;2023-04-24T07:59:37;14.40;31.00
3067;DHT22;1544;48.834;9.194;2023-04-24T08:02:13;14.30;30.10
3067;DHT22;1544;48.834;9.194;2023-04-24T08:04:49;14.40;30.30
3067;DHT22;1544;48.834;9.194;2023-04-24T08:07:25;14.30;30.40
3067;DHT22;1544;48.834;9.194;2023-04-24T08:10:01;14.30;30.00
3067;DHT22;1544;48.834;9.194;2023-04-24T08:12:37;14.30;29.80
3067;DHT22;1544;48.834;9.194;2023-04-24T08:15:12;14.20;30.00
3067;DHT22;1544;48.834;9.194;2023-04-24T08:17:49;14.10;30.00
3067;DHT22;1544;48.834;9.194;2023-04-24T08:20:25;14.20;30.60
3067;DHT22;1544;48.834;9.194;2023-04-24T08:23:00;14.20;30.30
3067;DHT22;1544;48.834;9.194;2023-04-24T08:25:35;14.30;30.30
3067;DHT22;1544;48.834;9.194;2023-04-24T08:28:10;14.40;30.90
3067;DHT22;1544;48.834;9.194;2023-04-24T08:30:46;14.40;31.10
3067;DHT22;1544;48.834;9.194;2023-04-24T08:33:25;14.40;31.20
3067;DHT22;1544;48.834;9.194;2023-04-24T08:36:02;14.30;30.70
3067;DHT22;1544;48.834;9.194;2023-04-24T08:38:38;14.10;30.50
3067;DHT22;1544;48.834;9.194;2023-04-24T08:41:18;14.00;30.20
3067;DHT22;1544;48.834;9.194;2023-04-24T08:43:54;13.90;30.00
3067;DHT22;1544;48.834;9.194;2023-04-24T08:46:30;13.80;30.00
3067;DHT22;1544;48.834;9.194;2023-04-24T08:49:05;13.90;30.10
3067;DHT22;1544;48.834;9.194;2023-04-24T08:51:40;13.90;30.00
3067;DHT22;1544;48.834;9.194;2023-04-24T08:54:16;13.90;30.00
3067;DHT22;1544;48.834;9.194;2023-04-24T08:56:53;13.80;30.60
3067;DHT22;1544;48.834;9.194;2023-04-24T08:59:31;13.90;30.10
3067;DHT22;1544;48.834;9.194;2023-04-24T09:02:10;13.90;29.80
3067;DHT22;1544;48.834;9.194;2023-04-24T09:04:48;13.90;30.00
3067;DHT22;1544;48.834;9.194;2023-04-24T09:07:25;14.00;29.80
3067;DHT22;1544;48.834;9.194;2023-04-24T09:10:07;14.00;29.70
3067;DHT22;1544;48.834;9.194;2023-04-24T09:12:43;14.10;29.70
3067;DHT22;1544;48.834;9.194;2023-04-24T09:15:20;14.20;29.20
3067;DHT22;1544;48.834;9.194;2023-04-24T09:17:55;14.20;29.70
3067;DHT22;1544;48.834;9.194;2023-04-24T09:20:33;14.10;29.40
3067;DHT22;1544;48.834;9.194;2023-04-24T09:23:10;14.00;29.20
3067;DHT22;1544;48.834;9.194;2023-04-24T09:25:55;13.80;29.90
3067;DHT22;1544;48.834;9.194;2023-04-24T09:28:32;13.50;32.60
3067;DHT22;1544;48.834;9.194;2023-04-24T09:31:18;13.00;34.40
3067;DHT22;1544;48.834;9.194;2023-04-24T09:34:04;12.70;33.90
3067;DHT22;1544;48.834;9.194;2023-04-24T09:36:42;12.60;32.70
3067;DHT22;1544;48.834;9.194;2023-04-24T09:39:18;12.80;32.00
3067;DHT22;1544;48.834;9.194;2023-04-24T09:41:56;12.80;31.60
3067;DHT22;1544;48.834;9.194;2023-04-24T09:44:34;12.90;31.30
3067;DHT22;1544;48.834;9.194;2023-04-24T09:47:12;12.80;30.90
3067;DHT22;1544;48.834;9.194;2023-04-24T09:49:48;13.00;31.40
3067;DHT22;1544;48.834;9.194;2023-04-24T09:52:23;13.10;30.70
3067;DHT22;1544;48.834;9.194;2023-04-24T09:54:59;13.40;30.60
3067;DHT22;1544;48.834;9.194;2023-04-24T09:57:35;13.50;30.40
3067;DHT22;1544;48.834;9.194;2023-04-24T10:00:11;13.70;30.10
3067;DHT22;1544;48.834;9.194;2023-04-24T10:02:49;13.60;29.50
3067;DHT22;1544;48.834;9.194;2023-04-24T10:05:32;13.60;29.90
3067;DHT22;1544;48.834;9.194;2023-04-24T10:08:12;13.60;29.80
3067;DHT22;1544;48.834;9.194;2023-04-24T10:10:49;13.60;29.60
3067;DHT22;1544;48.834;9.194;2023-04-24T10:13:28;13.60;29.70
3067;DHT22;1544;48.834;9.194;2023-04-24T10:16:04;13.70;29.60
3067;DHT22;1544;48.834;9.194;2023-04-24T10:18:39;13.80;29.60
3067;DHT22;1544;48.834;9.194;2023-04-24T10:22:26;14.00;28.90
3067;DHT22;1544;48.834;9.194;2023-04-24T10:25:06;14.20;28.40
3067;DHT22;1544;48.834;9.194;2023-04-24T10:27:43;14.40;28.10
3067;DHT22;1544;48.834;9.194;2023-04-24T10:30:20;14.60;28.10
3067;DHT22;1544;48.834;9.194;2023-04-24T10:32:59;14.70;28.20
3067;DHT22;1544;48.834;9.194;2023-04-24T10:35:42;14.70;27.50
3067;DHT22;1544;48.834;9.194;2023-04-24T10:38:25;14.70;27.60
3067;DHT22;1544;48.834;9.194;2023-04-24T10:41:09;14.60;27.70
3067;DHT22;1544;48.834;9.194;2023-04-24T10:46:45;14.20;27.30
3067;DHT22;1544;48.834;9.194;2023-04-24T10:49:31;14.10;27.30
3067;DHT22;1544;48.834;9.194;2023-04-24T10:52:08;14.00;27.80
3067;DHT22;1544;48.834;9.194;2023-04-24T10:54:46;14.00;27.70
3067;DHT22;1544;48.834;9.194;2023-04-24T10:57:27;14.10;27.80
3067;DHT22;1544;48.834;9.194;2023-04-24T11:00:16;14.30;27.90
3067;DHT22;1544;48.834;9.194;2023-04-24T11:02:56;14.40;27.80
3067;DHT22;1544;48.834;9.194;2023-04-24T11:08:31;14.30;27.60
3067;DHT22;1544;48.834;9.194;2023-04-24T11:11:16;14.20;27.80
3067;DHT22;1544;48.834;9.194;2023-04-24T11:19:26;14.00;28.40
3067;DHT22;1544;48.834;9.194;2023-04-24T11:22:14;14.30;28.20
3067;DHT22;1544;48.834;9.194;2023-04-24T11:24:53;14.50;28.00
3067;DHT22;1544;48.834;9.194;2023-04-24T11:27:42;14.60;28.10
3067;DHT22;1544;48.834;9.194;2023-04-24T11:30:20;14.80;28.10
3067;DHT22;1544;48.834;9.194;2023-04-24T11:33:07;15.00;28.00
3067;DHT22;1544;48.834;9.194;2023-04-24T11:35:43;15.40;27.90
3067;DHT22;1544;48.834;9.194;2023-04-24T11:38:20;15.70;27.60
3067;DHT22;1544;48.834;9.194;2023-04-24T11:41:01;15.90;27.40
3067;DHT22;1544;48.834;9.194;2023-04-24T11:43:39;16.00;27.40
3067;DHT22;1544;48.834;9.194;2023-04-24T11:46:17;16.20;27.50
3067;DHT22;1544;48.834;9.194;2023-04-24T11:48:53;16.00;27.30
3067;DHT22;1544;48.834;9.194;2023-04-24T11:51:29;15.90;27.30
3067;DHT22;1544;48.834;9.194;2023-04-24T11:54:25;15.70;27.50
3067;DHT22;1544;48.834;9.194;2023-04-24T11:57:05;15.60;28.00
3067;DHT22;1544;48.834;9.194;2023-04-24T11:59:42;15.70;28.00
3067;DHT22;1544;48.834;9.194;2023-04-24T12:02:25;16.00;28.00
3067;DHT22;1544;48.834;9.194;2023-04-24T12:05:03;16.00;27.80
3067;DHT22;1544;48.834;9.194;2023-04-24T12:07:41;16.00;27.50
3067;DHT22;1544;48.834;9.194;2023-04-24T12:10:21;16.10;27.10
3067;DHT22;1544;48.834;9.194;2023-04-24T12:13:00;16.10;27.00
3067;DHT22;1544;48.834;9.194;2023-04-24T12:15:40;16.00;27.30
3067;DHT22;1544;48.834;9.194;2023-04-24T12:18:22;15.80;27.50
3067;DHT22;1544;48.834;9.194;2023-04-24T12:21:22;15.60;27.40
3067;DHT22;1544;48.834;9.194;2023-04-24T12:24:02;15.40;27.70
3067;DHT22;1544;48.834;9.194;2023-04-24T12:26:43;15.10;28.00
3067;DHT22;1544;48.834;9.194;2023-04-24T12:29:22;15.10;27.90
3067;DHT22;1544;48.834;9.194;2023-04-24T12:32:02;15.20;28.20
3067;DHT22;1544;48.834;9.194;2023-04-24T12:34:39;15.40;27.90
3067;DHT22;1544;48.834;9.194;2023-04-24T12:37:15;15.40;27.80
3067;DHT22;1544;48.834;9.194;2023-04-24T12:40:21;15.30;27.80
3067;DHT22;1544;48.834;9.194;2023-04-24T12:42:57;15.10;27.60
3067;DHT22;1544;48.834;9.194;2023-04-24T12:45:35;15.00;27.70
3067;DHT22;1544;48.834;9.194;2023-04-24T12:48:11;15.20;28.30
3067;DHT22;1544;48.834;9.194;2023-04-24T12:50:50;15.40;28.30
3067;DHT22;1544;48.834;9.194;2023-04-24T12:53:26;15.50;28.00
3067;DHT22;1544;48.834;9.194;2023-04-24T12:56:06;15.50;27.80
3067;DHT22;1544;48.834;9.194;2023-04-24T12:58:44;15.50;27.80
3067;DHT22;1544;48.834;9.194;2023-04-24T13:01:20;15.30;27.90
3067;DHT22;1544;48.834;9.194;2023-04-24T13:03:57;15.30;28.60
3067;DHT22;1544;48.834;9.194;2023-04-24T13:06:35;15.00;30.00
3067;DHT22;1544;48.834;9.194;2023-04-24T13:09:11;14.70;30.40
3067;DHT22;1544;48.834;9.194;2023-04-24T13:11:47;14.70;30.00
3067;DHT22;1544;48.834;9.194;2023-04-24T13:14:24;14.70;30.00
3067;DHT22;1544;48.834;9.194;2023-04-24T13:17:04;14.80;29.90
3067;DHT22;1544;48.834;9.194;2023-04-24T13:19:41;15.10;29.60
3067;DHT22;1544;48.834;9.194;2023-04-24T13:22:20;15.40;29.80
3067;DHT22;1544;48.834;9.194;2023-04-24T13:24:57;15.40;29.00
3067;DHT22;1544;48.834;9.194;2023-04-24T13:27:34;15.30;29.00
3067;DHT22;1544;48.834;9.194;2023-04-24T13:30:11;15.30;29.00
3067;DHT22;1544;48.834;9.194;2023-04-24T13:32:48;15.30;28.80
3067;DHT22;1544;48.834;9.194;2023-04-24T13:35:25;15.30;29.00
3067;DHT22;1544;48.834;9.194;2023-04-24T13:38:02;15.30;29.00
3067;DHT22;1544;48.834;9.194;2023-04-24T13:40:42;15.40;29.00
3067;DHT22;1544;48.834;9.194;2023-04-24T13:43:18;15.30;29.20
3067;DHT22;1544;48.834;9.194;2023-04-24T13:45:55;15.20;28.80
3067;DHT22;1544;48.834;9.194;2023-04-24T13:48:32;15.00;29.10
3067;DHT22;1544;48.834;9.194;2023-04-24T13:51:08;15.00;29.00
3067;DHT22;1544;48.834;9.194;2023-04-24T13:53:45;15.00;29.00
3067;DHT22;1544;48.834;9.194;2023-04-24T13:56:23;15.00;29.00
3067;DHT22;1544;48.834;9.194;2023-04-24T13:59:01;15.10;29.40
3067;DHT22;1544;48.834;9.194;2023-04-24T14:01:39;15.40;29.70
3067;DHT22;1544;48.834;9.194;2023-04-24T14:04:16;15.90;29.70
3067;DHT22;1544;48.834;9.194;2023-04-24T14:06:54;16.30;29.70
3067;DHT22;1544;48.834;9.194;2023-04-24T14:09:32;16.70;29.40
3067;DHT22;1544;48.834;9.194;2023-04-24T14:12:09;16.90;29.10
3067;DHT22;1544;48.834;9.194;2023-04-24T14:14:46;16.90;28.40
3067;DHT22;1544;48.834;9.194;2023-04-24T14:17:23;16.80;28.30
3067;DHT22;1544;48.834;9.194;2023-04-24T14:20:00;16.90;28.10
3067;DHT22;1544;48.834;9.194;2023-04-24T14:22:36;17.00;28.20
3067;DHT22;1544;48.834;9.194;2023-04-24T14:25:12;16.70;28.30
3067;DHT22;1544;48.834;9.194;2023-04-24T14:27:48;16.70;28.50
3067;DHT22;1544;48.834;9.194;2023-04-24T14:30:24;16.80;28.60
3067;DHT22;1544;48.834;9.194;2023-04-24T14:33:00;17.00;28.40
3067;DHT22;1544;48.834;9.194;2023-04-24T14:35:36;17.10;28.30
3067;DHT22;1544;48.834;9.194;2023-04-24T14:38:12;17.50;28.40
3067;DHT22;1544;48.834;9.194;2023-04-24T14:40:49;17.80;28.10
3067;DHT22;1544;48.834;9.194;2023-04-24T14:43:28;18.10;27.90
3067;DHT22;1544;48.834;9.194;2023-04-24T14:46:05;17.90;27.70
3067;DHT22;1544;48.834;9.194;2023-04-24T14:48:41;17.70;27.50
3067;DHT22;1544;48.834;9.194;2023-04-24T14:51:18;17.60;27.60
3067;DHT22;1544;48.834;9.194;2023-04-24T14:53:56;17.20;27.80
3067;DHT22;1544;48.834;9.194;2023-04-24T14:56:32;17.10;27.70
3067;DHT22;1544;48.834;9.194;2023-04-24T14:59:08;16.80;27.90
3067;DHT22;1544;48.834;9.194;2023-04-24T15:01:45;16.70;28.20
3067;DHT22;1544;48.834;9.194;2023-04-24T15:04:21;16.60;28.00
3067;DHT22;1544;48.834;9.194;2023-04-24T15:06:57;16.70;28.30
3067;DHT22;1544;48.834;9.194;2023-04-24T15:09:33;16.80;27.90
3067;DHT22;1544;48.834;9.194;2023-04-24T15:12:11;16.90;28.10
3067;DHT22;1544;48.834;9.194;2023-04-24T15:14:49;17.00;28.00
3067;DHT22;1544;48.834;9.194;2023-04-24T15:17:25;17.00;28.00
3067;DHT22;1544;48.834;9.194;2023-04-24T15:20:02;16.90;28.10
3067;DHT22;1544;48.834;9.194;2023-04-24T15:22:41;16.80;27.70
3067;DHT22;1544;48.834;9.194;2023-04-24T15:25:19;16.40;28.20
3067;DHT22;1544;48.834;9.194;2023-04-24T15:27:58;16.20;28.20
3067;DHT22;1544;48.834;9.194;2023-04-24T15:30:35;16.10;28.40
3067;DHT22;1544;48.834;9.194;2023-04-24T15:33:12;15.90;28.70
3067;DHT22;1544;48.834;9.194;2023-04-24T15:35:48;15.70;29.30
3067;DHT22;1544;48.834;9.194;2023-04-24T15:38:25;15.60;29.10
3067;DHT22;1544;48.834;9.194;2023-04-24T15:41:01;15.50;29.40
3067;DHT22;1544;48.834;9.194;2023-04-24T15:43:37;15.50;29.50
3067;DHT22;1544;48.834;9.194;2023-04-24T15:46:14;15.50;29.60
3067;DHT22;1544;48.834;9.194;2023-04-24T15:48:50;15.70;29.60
3067;DHT22;1544;48.834;9.194;2023-04-24T15:51:27;15.80;29.60
3067;DHT22;1544;48.834;9.194;2023-04-24T15:54:05;15.90;29.60
3067;DHT22;1544;48.834;9.194;2023-04-24T15:56:41;16.10;29.40
3067;DHT22;1544;48.834;9.194;2023-04-24T15:59:17;16.20;29.40
3067;DHT22;1544;48.834;9.194;2023-04-24T16:01:54;16.40;29.60
3067;DHT22;1544;48.834;9.194;2023-04-24T16:04:30;16.70;29.70
3067;DHT22;1544;48.834;9.194;2023-04-24T16:07:07;16.90;29.20
3067;DHT22;1544;48.834;9.194;2023-04-24T16:09:43;17.10;29.10
3067;DHT22;1544;48.834;9.194;2023-04-24T16:12:21;17.20;29.00
3067;DHT22;1544;48.834;9.194;2023-04-24T16:14:57;17.40;28.80
3067;DHT22;1544;48.834;9.194;2023-04-24T16:17:34;17.50;28.60
3067;DHT22;1544;48.834;9.194;2023-04-24T16:20:11;17.80;28.70
3067;DHT22;1544;48.834;9.194;2023-04-24T16:22:47;18.20;29.00
3067;DHT22;1544;48.834;9.194;2023-04-24T16:25:23;18.60;29.00
3067;DHT22;1544;48.834;9.194;2023-04-24T16:27:59;19.40;28.70
3067;DHT22;1544;48.834;9.194;2023-04-24T16:30:35;20.20;28.40
3067;DHT22;1544;48.834;9.194;2023-04-24T16:33:11;21.10;27.60
3067;DHT22;1544;48.834;9.194;2023-04-24T16:35:47;21.80;27.00
3067;DHT22;1544;48.834;9.194;2023-04-24T16:38:24;22.10;26.20
3067;DHT22;1544;48.834;9.194;2023-04-24T16:41:01;21.90;25.70
3067;DHT22;1544;48.834;9.194;2023-04-24T16:43:37;21.60;26.00
3067;DHT22;1544;48.834;9.194;2023-04-24T16:46:13;21.20;25.80
3067;DHT22;1544;48.834;9.194;2023-04-24T16:48:52;20.80;26.10
3067;DHT22;1544;48.834;9.194;2023-04-24T16:51:31;20.40;26.50
3067;DHT22;1544;48.834;9.194;2023-04-24T16:54:10;20.20;26.60
3067;DHT22;1544;48.834;9.194;2023-04-24T16:56:45;20.00;26.60
3067;DHT22;1544;48.834;9.194;2023-04-24T16:59:23;20.10;26.40
3067;DHT22;1544;48.834;9.194;2023-04-24T17:02:02;19.90;26.30
3067;DHT22;1544;48.834;9.194;2023-04-24T17:04:40;19.70;27.00
3067;DHT22;1544;48.834;9.194;2023-04-24T17:07:16;19.40;26.90
3067;DHT22;1544;48.834;9.194;2023-04-24T17:09:52;19.00;26.90
3067;DHT22;1544;48.834;9.194;2023-04-24T17:12:28;18.70;27.20
3067;DHT22;1544;48.834;9.194;2023-04-24T17:15:05;18.50;26.90
3067;DHT22;1544;48.834;9.194;2023-04-24T17:17:41;18.20;25.90
3067;DHT22;1544;48.834;9.194;2023-04-24T17:20:20;17.80;26.40